Woonsocket, South Dakota
Current Conditions -  °F | °C
As of 8:53 PM on Thursday 18 Dec 2014 (Local Time) from KMHE Reporting Station
Haze Haze  
Wind Chill: 19°   Ceiling: 1500
Heat Index: 28°   Visibility: 6mi
Dew Point: 25°   Wind: 9mph
Humidity: 88%   Direction: 160°SSE
Pressure: 30.16"   Gusts: NA
Location:  44.05°N, 98.28°W
Report Text: KMHE 190253Z AUTO 16008KT 6SM BR OVC015 M02/M04 A3016 RMK AO2 SLP232 T10221039 58001 $
Loading
Personal Weather Stations






























Interactive Weather Map New forecast layout! Learn more

10-Day Weather Forecast

Advertisements
Track Severe Weather on mobile